Flight Track Log - Related Links

Times and Time Zones

All times are in EDT time to prevent confusion due to time zone crossing. See the OPT428 flight status page for this flight to view local times or setup timezone preferences in your user account.

Time Position Orientation Groundspeed Altitude Reporting Facility
EDT Latitude Longitude Course Direction KTS MPH feet Rate Location/Type
Sun 03:06:42 PM 34.1772 -118.4867 340° North 171 197 26,000  Level Los Angeles Center
Sun 03:07:44 PM 34.1333 -118.5331 221° Southwest 232 267 3,600 -9,823 Descending Los Angeles Center
Sun 03:08:46 PM 34.1397 -118.6089 276° West 242 278 5,700 1,984 Climbing Los Angeles Center
Sun 03:09:48 PM 34.1986 -118.6397 337° Northwest 239 275 7,700 2,081 Climbing Los Angeles Center
Sun 03:10:50 PM 34.2842 -118.6722 343° North 272 313 10,000 2,032 Climbing Los Angeles Center
Sun 03:11:52 PM 34.3644 -118.7003 344° North 294 338 11,900 1,452 Climbing Los Angeles Center
Sun 03:12:00 PM 34.5738 -118.7420 340° North  Level FlightAware Approximate
Sun 03:12:54 PM 34.4492 -118.7300 344° North 314 361 13,000  Level Los Angeles Center
Sun 03:13:57 PM 34.5342 -118.7606 344° North 317 365 13,000  Level Los Angeles Center
Sun 03:14:59 PM 34.6192 -118.7914 343° North 321 369 13,000 48 Level Los Angeles Center
Sun 03:16:01 PM 34.7047 -118.8256 342° North 323 372 13,100 726 Climbing Los Angeles Center
Sun 03:17:03 PM 34.8061 -118.8644 343° North 321 369 14,500 1,452 Climbing Los Angeles Center
Sun 03:18:05 PM 34.8822 -118.9117 333° Northwest 311 358 16,100 1,452 Climbing Los Angeles Center
Sun 03:19:07 PM 34.9544 -118.9569 333° Northwest 300 345 17,500 1,403 Climbing Los Angeles Center
Sun 03:20:09 PM 35.0267 -119.0028 333° Northwest 295 339 19,000 1,500 Climbing Los Angeles Center
Sun 03:21:11 PM 35.1019 -119.0453 335° Northwest 298 343 20,600 1,694 Climbing Los Angeles Center
Sun 03:22:13 PM 35.2003 -119.0847 342° North 311 358 22,500 1,440 Climbing Los Angeles Center
Sun 03:23:16 PM 35.2819 -119.1194 341° North 313 360 23,600 1,008 Climbing Los Angeles Center
Sun 03:24:18 PM 35.3728 -119.1578 341° North 339 390 24,600 919 Climbing Los Angeles Center
Sun 03:25:20 PM 35.4678 -119.1983 341° North 357 411 25,500 677 Climbing Los Angeles Center
Sun 03:26:22 PM 35.5650 -119.2392 341° North 365 420 26,000 435 Climbing Los Angeles Center
Sun 03:27:24 PM 35.6922 -119.2942 341° North 392 451 26,400 726 Climbing Los Angeles Center
Sun 03:28:26 PM 35.7992 -119.3408 341° North 406 467 27,500 1,016 Climbing Los Angeles Center
Sun 03:29:28 PM 35.9036 -119.3856 341° North 404 465 28,500 1,030 Climbing Los Angeles Center
Sun 03:30:05 PM 35.9628 -119.4142 339° North 395 455 29,200 918 Climbing Oakland Center
Sun 03:31:06 PM 36.0575 -119.4736 333° Northwest 387 445 30,000 390 Climbing Oakland Center
Sun 03:32:08 PM 36.1597 -119.5361 334° Northwest 406 467 30,000  Level Oakland Center
Sun 03:33:10 PM 36.2658 -119.6031 333° Northwest 427 491 30,000  Level Oakland Center
Sun 03:34:11 PM 36.3967 -119.6858 333° Northwest 441 507 30,000  Level Oakland Center
Sun 03:35:13 PM 36.5072 -119.7578 332° Northwest 448 516 30,000  Level Oakland Center
Sun 03:36:15 PM 36.6175 -119.8286 333° Northwest 449 517 30,000  Level Oakland Center
Sun 03:37:16 PM 36.7250 -119.8978 333° Northwest 442 509 30,000  Level Oakland Center
Sun 03:38:18 PM 36.8308 -119.9650 333° Northwest 434 499 30,000  Level Oakland Center
Sun 03:39:20 PM 36.9367 -120.0325 333° Northwest 431 496 30,000  Level Oakland Center
Sun 03:40:21 PM 37.0433 -120.1017 333° Northwest 431 496 30,000 -732 Level Oakland Center
Sun 03:41:23 PM 37.1733 -120.1883 332° Northwest 435 501 28,500 -1,694 Descending Oakland Center
Sun 03:42:25 PM 37.2872 -120.2619 333° Northwest 454 522 26,500 -1,951 Descending Oakland Center
Sun 03:43:26 PM 37.4006 -120.3367 332° Northwest 459 528 24,500 -1,220 Descending Oakland Center
Sun 03:44:28 PM 37.4969 -120.4244 324° Northwest 435 501 24,000 -927 Descending Oakland Center
Sun 03:45:29 PM 37.5839 -120.5092 322° Northwest 402 463 22,600 -1,512 Descending Oakland Center
Sun 03:46:31 PM 37.6708 -120.5969 321° Northwest 399 459 20,900 -1,694 Descending Oakland Center
Sun 03:47:33 PM 37.7578 -120.6839 322° Northwest 398 458 19,100 -1,756 Descending Oakland Center
Sun 03:48:34 PM 37.8447 -120.7717 321° Northwest 399 459 17,300 -1,951 Descending Oakland Center
Sun 03:49:36 PM 37.9494 -120.8764 322° Northwest 399 459 15,100 -1,597 Descending Oakland Center
Sun 03:50:38 PM 38.0347 -120.9639 321° Northwest 396 456 14,000 -1,073 Descending Oakland Center
Sun 03:51:39 PM 38.1278 -121.0297 331° Northwest 385 443 12,900 -1,220 Descending Oakland Center
Sun 03:52:41 PM 38.2219 -121.0939 332° Northwest 382 440 11,500 -1,854 Descending Oakland Center
Sun 03:53:42 PM 38.3167 -121.1667 329° Northwest 338 389 9,100 -2,479 Descending Northern Cal TRACON
Sun 03:54:42 PM 38.3833 -121.2000 339° North 293 337 6,500 -2,450 Descending Northern Cal TRACON
Sun 03:55:42 PM 38.4667 -121.2167 351° North 294 338 4,200 -1,200 Descending Northern Cal TRACON
Sun 03:56:47 PM 38.5333 -121.1833 21° North 250 288 4,000 -96 Descending Northern Cal TRACON
Sun 03:57:47 PM 38.6000 -121.2167 339° North 222 255 4,000 -545 Level Northern Cal TRACON
Sun 03:58:48 PM 38.6500 -121.2500 332° Northwest 242 278 2,900 -1,043 Descending Northern Cal TRACON
Sun 03:59:42 PM 38.7167 -121.2833 339° North 244 281 2,000 -474 Descending Northern Cal TRACON
Sun 04:00:42 PM 38.7500 -121.3333 311° West 210 242 2,000  Level Northern Cal TRACON
Sun 04:01:42 PM 38.7500 -121.3833 270° West 155 178 2,000 50 Level Northern Cal TRACON
Sun 04:02:42 PM 38.7667 -121.4167 303° West 181 208 2,100 -333 Climbing Northern Cal TRACON
Sun 04:05:00 PM 38.7136 -121.4008 167° South 157 181 900 -540 Descending Oakland Center
Sun 04:06:02 PM 38.6706 -121.3983 177° South 148 170 300 -581 Descending Oakland Center

Login

Don't have an account? Register now (free) for customized features, flight alerts, and more!